Time;durP1;ratioP1;P1;durP2;ratioP2;P2;SDS_P1;SDS_P2;PMS_P1;PMS_P2;Temp;Humidity;BMP_temperature;BMP_pressure;BME280_temperature;BME280_humidity;BME280_pressure;Samples;Min_cycle;Max_cycle;Signal;HPM_P1;HPM_P2
2022/04/23 00:01:48;;;;;;;23.57;19.47;;;;;6.90;92731.00;;;;7389384;19;20147;-76
2022/04/23 00:04:22;;;;;;;21.20;18.77;;;;;7.00;92735.00;;;;7389743;19;21014;-77
2022/04/23 00:06:49;;;;;;;21.50;18.17;;;;;7.00;92733.00;;;;7389822;19;20232;-77
2022/04/23 00:09:17;;;;;;;21.60;19.03;;;;;6.90;92731.00;;;;7391067;19;20580;-76
2022/04/23 00:11:55;;;;;;;23.70;18.43;;;;;6.80;92726.00;;;;7391343;19;20148;-78
2022/04/23 00:14:23;;;;;;;22.70;17.17;;;;;6.70;92731.00;;;;7388258;19;20129;-78
2022/04/23 00:16:50;;;;;;;21.10;18.90;;;;;6.70;92733.00;;;;7390059;19;20640;-76
2022/04/23 00:19:25;;;;;;;21.47;18.87;;;;;6.70;92737.00;;;;7391485;19;20610;-77
2022/04/23 00:21:52;;;;;;;20.47;17.77;;;;;6.60;92741.00;;;;7389636;19;20157;-78
2022/04/23 00:24:20;;;;;;;23.90;17.87;;;;;6.50;92740.00;;;;7392782;19;20638;-77
2022/04/23 00:26:54;;;;;;;22.03;19.13;;;;;6.50;92732.00;;;;7395473;19;20157;-79
2022/04/23 00:29:21;;;;;;;22.20;18.63;;;;;6.50;92744.00;;;;7397921;19;20132;-78
2022/04/23 00:31:49;;;;;;;25.90;19.83;;;;;6.50;92731.00;;;;7394829;19;20204;-77
2022/04/23 00:34:23;;;;;;;23.47;19.03;;;;;6.50;92736.00;;;;7396905;19;20124;-77
2022/04/23 00:36:50;;;;;;;22.57;19.37;;;;;6.50;92735.00;;;;7396023;19;20590;-77
2022/04/23 00:39:18;;;;;;;24.07;20.77;;;;;6.40;92738.00;;;;7389926;19;20165;-78
2022/04/23 00:41:52;;;;;;;25.53;20.07;;;;;6.50;92735.00;;;;7392002;19;20137;-77
2022/04/23 00:44:19;;;;;;;22.63;19.97;;;;;6.50;92733.00;;;;7397437;19;20124;-77
2022/04/23 00:46:47;;;;;;;24.07;20.07;;;;;6.40;92736.00;;;;7396838;19;20136;-78
2022/04/23 00:49:20;;;;;;;24.60;20.90;;;;;6.40;92740.00;;;;7397954;19;20149;-78
2022/04/23 00:51:49;;;;;;;25.13;20.63;;;;;6.30;92746.00;;;;7396193;19;20596;-77
2022/04/23 00:54:18;;;;;;;27.00;20.27;;;;;6.30;92746.00;;;;7395749;19;20609;-78
2022/04/23 00:56:53;;;;;;;25.77;20.80;;;;;6.30;92732.00;;;;7397307;19;20577;-77
2022/04/23 00:59:21;;;;;;;26.50;20.37;;;;;6.20;92727.00;;;;7395505;19;20141;-78
2022/04/23 01:01:48;;;;;;;23.90;21.27;;;;;6.20;92732.00;;;;7395250;19;20623;-77
2022/04/23 01:04:23;;;;;;;29.00;21.87;;;;;6.20;92733.00;;;;7397882;19;20192;-78
2022/04/23 01:06:50;;;;;;;23.83;20.23;;;;;6.10;92729.00;;;;7393443;19;20145;-78
2022/04/23 01:09:18;;;;;;;26.17;20.73;;;;;5.90;92724.00;;;;7397559;19;20647;-77
2022/04/23 01:11:54;;;;;;;24.83;21.17;;;;;6.10;92724.00;;;;7398660;19;20124;-78
2022/04/23 01:14:21;;;;;;;26.90;22.57;;;;;6.10;92719.00;;;;7397818;19;20192;-77
2022/04/23 01:16:49;;;;;;;26.87;22.27;;;;;6.10;92715.00;;;;7396469;19;20132;-76
2022/04/23 01:19:23;;;;;;;31.07;22.70;;;;;6.10;92726.00;;;;7399210;19;20132;-77
2022/04/23 01:21:50;;;;;;;26.17;21.17;;;;;6.00;92720.00;;;;7393801;19;20145;-78
2022/04/23 01:24:18;;;;;;;33.53;22.63;;;;;6.00;92716.00;;;;7393566;19;20212;-78
2022/04/23 01:26:53;;;;;;;27.17;21.63;;;;;5.90;92713.00;;;;7399260;19;20479;-76
2022/04/23 01:29:22;;;;;;;26.23;21.30;;;;;5.80;92713.00;;;;7394174;19;20233;-77
2022/04/23 01:31:49;;;;;;;30.10;23.27;;;;;5.80;92715.00;;;;7392100;19;20149;-77
2022/04/23 01:34:30;;;;;;;29.20;22.97;;;;;6.00;92720.00;;;;7396184;19;20156;-76
2022/04/23 01:36:58;;;;;;;32.33;22.43;;;;;5.90;92710.00;;;;7394705;19;20164;-78
2022/04/23 01:39:32;;;;;;;28.67;22.07;;;;;5.90;92716.00;;;;7396917;19;20127;-77
2022/04/23 01:41:59;;;;;;;28.27;23.33;;;;;5.90;92710.00;;;;7393659;19;20132;-76
2022/04/23 01:44:27;;;;;;;30.27;23.50;;;;;5.90;92711.00;;;;7395928;19;20163;-76
2022/04/23 01:47:01;;;;;;;28.07;24.20;;;;;5.80;92723.00;;;;7394427;19;20133;-77
2022/04/23 01:49:29;;;;;;;28.03;22.23;;;;;5.80;92720.00;;;;7395972;19;20133;-78
2022/04/23 01:51:56;;;;;;;33.10;24.50;;;;;5.70;92719.00;;;;7396210;19;20153;-77
2022/04/23 01:54:32;;;;;;;29.80;24.27;;;;;5.90;92714.00;;;;7393429;19;20128;-77
2022/04/23 01:57:00;;;;;;;33.50;23.87;;;;;5.90;92716.00;;;;7397339;19;20152;-78
2022/04/23 01:59:29;;;;;;;28.07;23.77;;;;;6.00;92724.00;;;;7397575;19;20137;-77
2022/04/23 02:02:04;;;;;;;29.77;24.47;;;;;6.10;92721.00;;;;7396976;19;20741;-76
2022/04/23 02:04:31;;;;;;;33.07;25.90;;;;;6.00;92722.00;;;;7393781;19;20125;-76
2022/04/23 02:07:05;;;;;;;34.93;24.07;;;;;6.10;92719.00;;;;7398249;19;20193;-77
2022/04/23 02:09:41;;;;;;;34.10;25.63;;;;;6.00;92726.00;;;;7391639;19;20144;-76
2022/04/23 02:12:09;;;;;;;29.57;23.83;;;;;5.70;92718.00;;;;7398498;19;20160;-77
2022/04/23 02:14:36;;;;;;;30.20;24.23;;;;;5.70;92717.00;;;;7392460;19;20125;-77
2022/04/23 02:17:11;;;;;;;32.23;26.10;;;;;5.50;92719.00;;;;7392600;19;20158;-77
2022/04/23 02:19:38;;;;;;;31.10;23.27;;;;;5.30;92714.00;;;;7393789;19;20170;-78
2022/04/23 02:22:06;;;;;;;31.23;24.33;;;;;5.30;92714.00;;;;7397555;19;20738;-77
2022/04/23 02:24:40;;;;;;;33.70;25.07;;;;;5.30;92719.00;;;;7392787;19;20120;-77
2022/04/23 02:27:07;;;;;;;31.57;24.80;;;;;5.20;92712.00;;;;7391789;19;20541;-78
2022/04/23 02:29:35;;;;;;;34.10;24.93;;;;;5.20;92717.00;;;;7393252;19;20739;-77
2022/04/23 02:32:15;;;;;;;37.97;25.97;;;;;5.20;92718.00;;;;7394279;19;20607;-77
2022/04/23 02:34:43;;;;;;;34.83;26.47;;;;;5.10;92717.00;;;;7393489;19;20149;-78
2022/04/23 02:37:17;;;;;;;34.93;26.07;;;;;5.10;92717.00;;;;7391501;19;20616;-77
2022/04/23 02:39:45;;;;;;;34.03;25.33;;;;;5.10;92714.00;;;;7391980;19;20602;-78
2022/04/23 02:42:12;;;;;;;35.30;26.03;;;;;5.10;92721.00;;;;7395744;19;20139;-78
2022/04/23 02:44:47;;;;;;;41.20;28.57;;;;;5.30;92719.00;;;;7391698;19;20466;-77
2022/04/23 02:47:16;;;;;;;37.00;27.47;;;;;5.30;92723.00;;;;7392452;19;20588;-77
2022/04/23 02:49:44;;;;;;;37.87;27.67;;;;;5.30;92719.00;;;;7390639;19;20482;-78
2022/04/23 02:52:18;;;;;;;35.17;27.20;;;;;5.20;92720.00;;;;7393229;19;20145;-78
2022/04/23 02:54:46;;;;;;;40.23;28.30;;;;;5.30;92716.00;;;;7394183;19;20173;-78
2022/04/23 02:57:14;;;;;;;40.97;29.63;;;;;5.40;92720.00;;;;7392316;19;20750;-78
2022/04/23 02:59:48;;;;;;;38.17;29.73;;;;;5.20;92719.00;;;;7392457;19;20136;-77
2022/04/23 03:02:15;;;;;;;42.43;30.20;;;;;5.10;92718.00;;;;7390739;19;20158;-77
2022/04/23 03:04:43;;;;;;;42.10;30.60;;;;;5.00;92714.00;;;;7390652;19;20200;-78
2022/04/23 03:07:18;;;;;;;46.37;30.40;;;;;4.90;92708.00;;;;7397629;19;20587;-78
2022/04/23 03:09:46;;;;;;;41.73;28.87;;;;;4.90;92702.00;;;;7390631;19;20160;-76
2022/04/23 03:12:14;;;;;;;42.47;28.80;;;;;5.00;92698.00;;;;7390932;19;20140;-78
2022/04/23 03:14:48;;;;;;;45.27;30.43;;;;;5.00;92696.00;;;;7391270;19;20116;-76
2022/04/23 03:17:15;;;;;;;42.90;29.23;;;;;5.00;92694.00;;;;7392550;19;20125;-78
2022/04/23 03:19:43;;;;;;;43.60;30.77;;;;;5.10;92697.00;;;;7395095;19;20140;-78
2022/04/23 03:22:17;;;;;;;45.13;30.83;;;;;5.10;92700.00;;;;7390653;19;20144;-78
2022/04/23 03:24:44;;;;;;;43.73;29.43;;;;;4.90;92703.00;;;;7391206;19;20152;-77
2022/04/23 03:27:12;;;;;;;42.77;30.30;;;;;4.80;92691.00;;;;7389894;19;20560;-78
2022/04/23 03:29:46;;;;;;;45.77;29.97;;;;;4.70;92694.00;;;;7391992;19;20176;-77
2022/04/23 03:32:19;;;;;;;44.73;30.67;;;;;4.70;92694.00;;;;7391758;19;20153;-76
2022/04/23 03:35:00;;;;;;;40.37;28.87;;;;;4.60;92695.00;;;;7393373;19;20192;-77
2022/04/23 03:37:28;;;;;;;43.07;28.77;;;;;4.50;92691.00;;;;7392084;19;20124;-77
2022/04/23 03:40:05;;;;;;;40.97;28.90;;;;;4.40;92686.00;;;;7391369;19;20133;-77
2022/04/23 03:42:40;;;;;;;47.90;30.30;;;;;4.30;92686.00;;;;7392697;19;20160;-76
2022/04/23 03:45:18;;;;;;;47.20;30.60;;;;;4.30;92681.00;;;;7390314;19;20220;-78
2022/04/23 03:47:47;;;;;;;47.47;29.87;;;;;4.20;92690.00;;;;7393338;19;20212;-77
2022/04/23 03:50:22;;;;;;;42.70;29.87;;;;;4.20;92679.00;;;;7391184;19;20136;-77
2022/04/23 03:52:49;;;;;;;45.97;31.43;;;;;4.20;92681.00;;;;7390218;19;20164;-77
2022/04/23 03:55:17;;;;;;;48.10;31.87;;;;;4.20;92684.00;;;;7389134;19;20600;-78
2022/04/23 03:57:53;;;;;;;51.67;31.17;;;;;4.20;92683.00;;;;7391641;19;20603;-78
2022/04/23 04:00:21;;;;;;;51.10;34.97;;;;;4.20;92678.00;;;;7390582;19;20151;-77
2022/04/23 04:02:55;;;;;;;58.77;35.23;;;;;4.30;92677.00;;;;7398291;19;20606;-77
2022/04/23 04:05:29;;;;;;;58.43;34.43;;;;;4.20;92689.00;;;;7397530;19;20157;-77
2022/04/23 04:07:57;;;;;;;59.73;37.07;;;;;4.20;92681.00;;;;7399261;19;20208;-77
2022/04/23 04:10:24;;;;;;;67.87;38.57;;;;;4.30;92675.00;;;;7396073;19;20180;-77
2022/04/23 04:12:59;;;;;;;79.27;42.13;;;;;4.30;92666.00;;;;7398764;19;20131;-77
2022/04/23 04:15:26;;;;;;;75.00;43.43;;;;;4.40;92670.00;;;;7396433;19;20125;-77
2022/04/23 04:17:54;;;;;;;79.77;44.50;;;;;4.50;92669.00;;;;7398090;19;20140;-77
2022/04/23 04:20:32;;;;;;;76.93;43.20;;;;;4.40;92680.00;;;;7397603;19;20171;-77
2022/04/23 04:23:01;;;;;;;81.07;42.20;;;;;4.30;92676.00;;;;7398392;19;20117;-76
2022/04/23 04:25:28;;;;;;;83.23;44.77;;;;;4.30;92685.00;;;;7396646;19;20121;-77
2022/04/23 04:28:04;;;;;;;85.17;44.50;;;;;4.40;92678.00;;;;7397630;19;20152;-77
2022/04/23 04:33:38;;;;;;;84.13;44.83;;;;;4.60;92672.00;;;;7400530;19;20140;-77
2022/04/23 04:36:06;;;;;;;92.33;45.90;;;;;4.90;92677.00;;;;7394613;19;20572;-76
2022/04/23 04:38:39;;;;;;;101.13;51.47;;;;;5.30;92674.00;;;;7396992;19;20145;-77
2022/04/23 04:41:07;;;;;;;110.13;53.87;;;;;5.50;92679.00;;;;7396941;19;20138;-77
2022/04/23 04:43:36;;;;;;;100.10;53.20;;;;;5.60;92671.00;;;;7395592;19;20172;-77
2022/04/23 04:46:09;;;;;;;116.53;57.43;;;;;5.80;92679.00;;;;7396536;19;20312;-77
2022/04/23 04:48:37;;;;;;;116.53;55.27;;;;;6.00;92674.00;;;;7395564;19;20128;-77
2022/04/23 04:51:05;;;;;;;113.87;54.47;;;;;6.10;92680.00;;;;7392547;19;20149;-75
2022/04/23 04:53:39;;;;;;;103.57;54.33;;;;;6.10;92678.00;;;;7395471;19;20121;-77
2022/04/23 04:56:12;;;;;;;104.30;51.10;;;;;6.30;92678.00;;;;7394409;19;20184;-76
2022/04/23 04:58:47;;;;;;;105.03;53.03;;;;;6.30;92680.00;;;;7395476;19;20141;-77
2022/04/23 05:01:15;;;;;;;94.17;51.07;;;;;6.30;92689.00;;;;7395322;19;20628;-76
2022/04/23 05:03:43;;;;;;;94.67;50.23;;;;;6.30;92685.00;;;;7395204;19;20549;-76
2022/04/23 05:06:18;;;;;;;89.90;49.67;;;;;6.60;92699.00;;;;7395422;19;20125;-78
2022/04/23 05:08:45;;;;;;;82.57;47.27;;;;;6.50;92703.00;;;;7395504;19;20153;-76
2022/04/23 05:11:13;;;;;;;77.83;46.27;;;;;6.50;92696.00;;;;7390994;19;20634;-76
2022/04/23 05:13:47;;;;;;;77.10;44.53;;;;;6.60;92699.00;;;;7395505;19;20137;-76
2022/04/23 05:16:14;;;;;;;78.03;46.30;;;;;6.70;92705.00;;;;7393106;19;20137;-77
2022/04/23 05:18:42;;;;;;;101.23;43.70;;;;;6.70;92694.00;;;;7394620;19;20137;-77
2022/04/23 05:21:16;;;;;;;168.87;44.90;;;;;6.70;92696.00;;;;7396857;19;20460;-77
2022/04/23 05:23:43;;;;;;;100.63;44.83;;;;;6.80;92689.00;;;;7396935;19;20135;-76
2022/04/23 05:26:11;;;;;;;69.53;41.37;;;;;6.70;92698.00;;;;7395016;19;20129;-77
2022/04/23 05:28:45;;;;;;;65.13;41.40;;;;;6.60;92697.00;;;;7395655;19;20487;-78
2022/04/23 05:31:18;;;;;;;62.17;40.83;;;;;6.70;92708.00;;;;7395934;19;20232;-76
2022/04/23 05:33:53;;;;;;;56.40;38.10;;;;;6.80;92711.00;;;;7394454;19;20525;-76
2022/04/23 05:36:20;;;;;;;59.50;38.33;;;;;6.70;92710.00;;;;7392418;19;20137;-76
2022/04/23 05:38:48;;;;;;;54.73;38.57;;;;;6.90;92713.00;;;;7393837;19;20587;-77
2022/04/23 05:41:22;;;;;;;120.90;37.10;;;;;6.80;92705.00;;;;7394573;19;20164;-76
2022/04/23 05:43:50;;;;;;;71.87;35.77;;;;;7.00;92711.00;;;;7396507;19;20129;-76
2022/04/23 05:46:17;;;;;;;53.17;35.70;;;;;6.90;92710.00;;;;7393529;19;20121;-76
2022/04/23 05:48:52;;;;;;;61.60;35.37;;;;;6.90;92716.00;;;;7395762;19;20124;-77
2022/04/23 05:51:19;;;;;;;53.13;34.37;;;;;6.90;92715.00;;;;7394814;19;20459;-77
2022/04/23 05:53:47;;;;;;;55.20;32.53;;;;;6.70;92712.00;;;;7392993;19;20129;-77
2022/04/23 05:56:21;;;;;;;53.03;31.60;;;;;6.80;92711.00;;;;7396097;19;20523;-77
2022/04/23 05:58:48;;;;;;;48.30;32.67;;;;;6.90;92715.00;;;;7394030;19;20140;-77
2022/04/23 06:01:16;;;;;;;58.07;31.20;;;;;6.90;92719.00;;;;7395606;19;20587;-76
2022/04/23 06:03:50;;;;;;;47.30;30.13;;;;;7.00;92722.00;;;;7395837;19;20158;-78
2022/04/23 06:06:19;;;;;;;42.33;30.93;;;;;7.00;92725.00;;;;7395149;19;20663;-77
2022/04/23 06:08:47;;;;;;;44.47;28.57;;;;;7.00;92730.00;;;;7393199;19;20483;-77
2022/04/23 06:11:21;;;;;;;37.73;28.73;;;;;7.10;92732.00;;;;7394099;19;20472;-78
2022/04/23 06:13:48;;;;;;;39.83;28.53;;;;;7.00;92726.00;;;;7396352;19;20572;-77
2022/04/23 06:16:15;;;;;;;39.37;28.27;;;;;7.00;92731.00;;;;7391979;19;20125;-77
2022/04/23 06:18:50;;;;;;;33.43;26.50;;;;;7.10;92731.00;;;;7392992;19;20618;-77
2022/04/23 06:21:32;;;;;;;38.50;26.97;;;;;7.00;92743.00;;;;7390414;19;20144;-77
2022/04/23 06:24:13;;;;;;;33.47;25.70;;;;;7.20;92749.00;;;;7391740;19;20623;-78
2022/04/23 06:26:41;;;;;;;35.63;27.27;;;;;7.30;92738.00;;;;7393227;19;20482;-77
2022/04/23 06:29:15;;;;;;;33.07;26.30;;;;;7.20;92736.00;;;;7395044;19;20491;-76
2022/04/23 06:31:48;;;;;;;32.27;26.27;;;;;7.40;92747.00;;;;7391086;19;20640;-76
2022/04/23 06:34:23;;;;;;;31.10;24.60;;;;;7.30;92739.00;;;;7395310;19;20151;-77
2022/04/23 06:36:51;;;;;;;29.47;24.83;;;;;7.50;92735.00;;;;7396227;19;20163;-76
2022/04/23 06:39:18;;;;;;;25.90;22.80;;;;;7.60;92739.00;;;;7397247;19;20614;-77
2022/04/23 06:41:53;;;;;;;29.27;24.80;;;;;7.70;92745.00;;;;7392969;19;20171;-79
2022/04/23 06:44:20;;;;;;;27.67;23.43;;;;;7.70;92748.00;;;;7393031;19;20117;-78
2022/04/23 06:46:48;;;;;;;26.33;23.37;;;;;7.70;92754.00;;;;7392131;19;20148;-77
2022/04/23 06:49:25;;;;;;;30.67;23.10;;;;;7.70;92755.00;;;;7389965;19;20157;-76
2022/04/23 06:51:54;;;;;;;26.73;23.63;;;;;7.70;92750.00;;;;7394057;19;20157;-77
2022/04/23 06:54:42;;;;;;;24.37;21.77;;;;;7.60;92754.00;;;;7391138;19;20144;-79
2022/04/23 06:57:20;;;;;;;29.40;21.63;;;;;7.60;92761.00;;;;7388209;19;20159;-76
2022/04/23 07:00:02;;;;;;;24.50;21.90;;;;;7.70;92765.00;;;;7393642;19;20172;-76
2022/04/23 07:02:31;;;;;;;24.97;21.03;;;;;7.70;92766.00;;;;7392423;19;20166;-77
2022/04/23 07:05:10;;;;;;;23.50;20.57;;;;;7.60;92761.00;;;;7394605;19;20132;-77
2022/04/23 07:07:41;;;;;;;25.27;21.77;;;;;7.70;92763.00;;;;7390957;19;20471;-76
2022/04/23 07:10:15;;;;;;;23.97;20.53;;;;;7.70;92754.00;;;;7394109;19;20152;-78
2022/04/23 07:12:42;;;;;;;23.37;20.63;;;;;7.90;92756.00;;;;7390976;19;20486;-77
2022/04/23 07:15:10;;;;;;;22.60;19.50;;;;;8.00;92750.00;;;;7390136;19;20129;-76
2022/04/23 07:17:49;;;;;;;23.30;20.30;;;;;8.00;92746.00;;;;7389824;19;20132;-79
2022/04/23 07:20:21;;;;;;;20.67;18.47;;;;;8.30;92759.00;;;;7395281;19;20180;-78
2022/04/23 07:25:51;;;;;;;19.80;17.70;;;;;8.60;92747.00;;;;7394589;19;20623;-76
2022/04/23 07:28:26;;;;;;;21.30;17.87;;;;;9.00;92757.00;;;;7390482;19;20870;-77
2022/04/23 07:31:07;;;;;;;18.90;16.90;;;;;9.00;92759.00;;;;7389962;19;20166;-76
2022/04/23 07:39:21;;;;;;;18.13;16.27;;;;;8.90;92758.00;;;;7400985;19;20171;-76
2022/04/23 07:41:49;;;;;;;17.43;15.63;;;;;9.30;92753.00;;;;7398955;19;20160;-77
2022/04/23 07:44:16;;;;;;;17.43;15.53;;;;;9.30;92756.00;;;;7399411;19;20171;-77
2022/04/23 07:46:51;;;;;;;16.97;15.13;;;;;9.20;92763.00;;;;7401142;19;20599;-77
2022/04/23 07:49:19;;;;;;;17.40;15.60;;;;;9.20;92753.00;;;;7399565;19;20516;-76
2022/04/23 07:51:47;;;;;;;18.37;16.30;;;;;9.40;92750.00;;;;7399134;19;20619;-76
2022/04/23 07:54:21;;;;;;;17.37;15.47;;;;;9.40;92742.00;;;;7400867;19;20128;-76
2022/04/23 07:56:49;;;;;;;16.27;14.57;;;;;9.30;92753.00;;;;7398188;19;20153;-76
2022/04/23 07:59:16;;;;;;;19.73;15.52;;;;;9.50;92753.00;;;;7397251;19;20463;-76
2022/04/23 08:01:51;;;;;;;16.50;14.73;;;;;9.80;92746.00;;;;7398633;19;20484;-76
2022/04/23 08:04:19;;;;;;;16.20;14.60;;;;;9.90;92749.00;;;;7400251;19;20137;-76
2022/04/23 08:06:47;;;;;;;16.48;14.32;;;;;9.90;92749.00;;;;7397265;19;20137;-76
2022/04/23 08:09:21;;;;;;;17.25;14.20;;;;;10.30;92738.00;;;;7398356;19;20152;-76
2022/04/23 08:11:49;;;;;;;14.00;12.60;;;;;10.00;92749.00;;;;7399205;19;21696;-77
2022/04/23 08:14:16;;;;;;;32.28;21.70;;;;;9.90;92752.00;;;;7400025;19;20260;-76
2022/04/23 08:16:52;;;;;;;18.25;14.10;;;;;9.80;92746.00;;;;7397191;19;20606;-77
2022/04/23 08:19:20;;;;;;;12.75;11.45;;;;;10.00;92755.00;;;;7398424;19;20208;-77
2022/04/23 08:21:47;;;;;;;13.32;11.93;;;;;9.90;92753.00;;;;7399261;19;20136;-77
2022/04/23 08:24:22;;;;;;;12.93;11.60;;;;;10.40;92759.00;;;;7399160;19;20229;-76
2022/04/23 08:26:49;;;;;;;12.45;11.15;;;;;10.60;92755.00;;;;7399866;19;20133;-78
2022/04/23 08:32:16;;;;;;;10.85;9.75;;;;;10.10;92763.00;;;;7391027;19;20148;-79
2022/04/23 08:34:45;;;;;;;11.80;9.77;;;;;10.20;92765.00;;;;7395604;19;20149;-77
2022/04/23 08:37:19;;;;;;;10.60;9.60;;;;;10.40;92762.00;;;;7397112;19;20128;-77
2022/04/23 08:39:47;;;;;;;10.32;9.32;;;;;10.00;92765.00;;;;7398381;19;20183;-76
2022/04/23 08:42:17;;;;;;;10.07;9.07;;;;;10.00;92759.00;;;;7396742;19;20137;-78
2022/04/23 08:44:54;;;;;;;11.07;9.93;;;;;10.40;92760.00;;;;7397863;19;20175;-77
2022/04/23 08:47:25;;;;;;;11.95;9.88;;;;;10.70;92761.00;;;;7398580;19;20575;-76
2022/04/23 08:50:01;;;;;;;12.20;10.43;;;;;11.00;92745.00;;;;7398700;19;20761;-78
2022/04/23 08:52:32;;;;;;;11.00;9.60;;;;;11.30;92749.00;;;;7397181;19;21190;-78
2022/04/23 08:55:07;;;;;;;10.65;9.55;;;;;11.50;92753.00;;;;7398026;19;20144;-76
2022/04/23 08:57:38;;;;;;;9.65;8.75;;;;;11.80;92745.00;;;;7396247;19;20216;-77
2022/04/23 09:00:08;;;;;;;10.73;8.63;;;;;11.60;92750.00;;;;7397777;19;20212;-75
2022/04/23 09:02:43;;;;;;;9.65;8.70;;;;;11.90;92752.00;;;;7397623;19;20149;-77
2022/04/23 09:05:14;;;;;;;9.55;8.43;;;;;11.70;92743.00;;;;7399363;19;20117;-76
2022/04/23 09:07:53;;;;;;;9.65;8.65;;;;;12.10;92737.00;;;;7397341;19;20133;-78
2022/04/23 09:10:41;;;;;;;10.38;9.32;;;;;12.00;92748.00;;;;7394471;19;20199;-77
2022/04/23 09:13:29;;;;;;;9.02;8.23;;;;;12.70;92749.00;;;;7394914;19;20133;-76
2022/04/23 09:24:48;;;;;;;14.60;8.18;;;;;12.90;92750.00;;;;7398146;19;20602;-77
2022/04/23 09:27:16;;;;;;;9.00;8.13;;;;;12.80;92751.00;;;;7398966;19;20184;-78
2022/04/23 09:30:02;;;;;;;8.48;7.68;;;;;12.80;92745.00;;;;7405443;19;20140;-77
2022/04/23 09:32:43;;;;;;;8.73;7.82;;;;;13.00;92749.00;;;;7401826;19;20176;-77
2022/04/23 09:35:12;;;;;;;9.85;7.65;;;;;13.20;92736.00;;;;7404053;19;20133;-78
2022/04/23 09:40:33;;;;;;;8.57;7.47;;;;;14.10;92733.00;;;;7405109;19;20564;-77
2022/04/23 09:43:15;;;;;;;9.40;8.55;;;;;15.00;92737.00;;;;7398565;19;20166;-75
2022/04/23 09:45:43;;;;;;;8.98;8.07;;;;;14.30;92740.00;;;;7399911;19;20164;-78
2022/04/23 09:48:18;;;;;;;8.50;7.70;;;;;14.20;92742.00;;;;7402705;19;20595;-77
2022/04/23 09:50:47;;;;;;;8.77;7.88;;;;;13.60;92740.00;;;;7399303;19;20144;-75
2022/04/23 09:53:25;;;;;;;8.75;7.95;;;;;14.20;92741.00;;;;7400194;19;20170;-78
2022/04/23 09:56:00;;;;;;;8.32;7.53;;;;;14.20;92752.00;;;;7399984;19;20141;-78
2022/04/23 09:58:32;;;;;;;8.93;8.02;;;;;14.50;92749.00;;;;7400487;19;20144;-78
2022/04/23 10:01:08;;;;;;;9.35;7.82;;;;;14.30;92749.00;;;;7400422;19;20152;-75
2022/04/23 10:03:37;;;;;;;8.57;7.68;;;;;14.50;92745.00;;;;7397315;19;20131;-76
2022/04/23 10:06:08;;;;;;;9.05;8.15;;;;;15.10;92746.00;;;;7398701;19;20137;-78
2022/04/23 10:08:47;;;;;;;11.02;7.72;;;;;15.20;92749.00;;;;7397639;19;20223;-76
2022/04/23 10:11:29;;;;;;;9.23;6.93;;;;;15.40;92756.00;;;;7398176;19;20176;-74
2022/04/23 10:14:06;;;;;;;7.90;7.20;;;;;14.80;92756.00;;;;7396526;19;20176;-75
2022/04/23 10:16:36;;;;;;;8.48;7.70;;;;;14.80;92758.00;;;;7397890;19;20500;-76
2022/04/23 10:19:11;;;;;;;8.25;7.45;;;;;14.70;92756.00;;;;7399106;19;20223;-75
2022/04/23 10:21:56;;;;;;;8.38;7.55;;;;;14.50;92749.00;;;;7394416;19;20140;-76
2022/04/23 10:24:42;;;;;;;8.80;7.32;;;;;14.90;92755.00;;;;7396823;19;20160;-77
2022/04/23 10:27:14;;;;;;;8.70;7.82;;;;;15.00;92750.00;;;;7398550;19;20152;-76
2022/04/23 10:29:50;;;;;;;8.43;7.63;;;;;14.80;92751.00;;;;7397777;19;20152;-78
2022/04/23 10:32:40;;;;;;;8.32;7.53;;;;;16.60;92750.00;;;;7394889;19;20184;-75
2022/04/23 10:35:27;;;;;;;7.80;7.00;;;;;16.40;92741.00;;;;7398473;19;20156;-75
2022/04/23 10:38:02;;;;;;;8.32;7.53;;;;;17.20;92732.00;;;;7393501;19;20470;-76
2022/04/23 10:40:39;;;;;;;8.93;7.90;;;;;17.50;92726.00;;;;7398000;19;20138;-76
2022/04/23 10:43:13;;;;;;;10.23;7.28;;;;;17.70;92731.00;;;;7394764;19;20147;-75
2022/04/23 10:45:48;;;;;;;10.80;6.72;;;;;17.00;92731.00;;;;7395884;19;20241;-76
2022/04/23 10:48:27;;;;;;;7.72;7.03;;;;;16.60;92735.00;;;;7397477;19;20133;-76
2022/04/23 10:51:04;;;;;;;7.82;7.03;;;;;16.50;92730.00;;;;7395506;19;20236;-78
2022/04/23 10:53:41;;;;;;;7.88;7.07;;;;;16.40;92738.00;;;;7395527;19;20172;-78
2022/04/23 10:56:26;;;;;;;9.45;6.57;;;;;17.70;92720.00;;;;7393418;19;20212;-76
2022/04/23 10:59:24;;;;;;;8.27;7.47;;;;;18.20;92738.00;;;;7393234;19;20136;-76
2022/04/23 11:02:06;;;;;;;7.10;6.40;;;;;17.30;92740.00;;;;7398304;19;20200;-74
2022/04/23 11:12:14;;;;;;;7.80;6.95;;;;;16.50;92742.00;;;;7394345;19;20156;-77
2022/04/23 11:13:43;;;;;;;8.70;7.90;;;;;15.80;92747.00;;;;7393709;19;20133;-76
2022/04/23 11:16:22;;;;;;;8.68;7.80;;;;;15.90;92748.00;;;;7396419;19;20163;-76
2022/04/23 11:18:58;;;;;;;8.10;7.30;;;;;15.50;92750.00;;;;7394554;19;20153;-77
2022/04/23 11:21:32;;;;;;;9.10;8.20;;;;;15.10;92746.00;;;;7397460;19;20144;-78
2022/04/23 11:24:09;;;;;;;9.07;7.10;;;;;14.70;92753.00;;;;7397240;19;20168;-76
2022/04/23 11:26:42;;;;;;;8.85;7.72;;;;;14.20;92754.00;;;;7396740;19;20144;-77
2022/04/23 11:29:17;;;;;;;9.30;8.18;;;;;14.00;92750.00;;;;7396759;19;20476;-77
2022/04/23 11:32:02;;;;;;;11.15;7.90;;;;;13.90;92745.00;;;;7395762;19;20145;-77
2022/04/23 11:34:39;;;;;;;12.68;7.40;;;;;13.70;92751.00;;;;7395119;19;20635;-75
2022/04/23 11:37:11;;;;;;;10.85;7.90;;;;;13.60;92742.00;;;;7398614;19;20233;-77
2022/04/23 11:39:48;;;;;;;8.90;7.75;;;;;13.30;92749.00;;;;7398567;19;20132;-76
2022/04/23 11:42:16;;;;;;;8.77;7.88;;;;;13.30;92748.00;;;;7395728;19;20146;-78
2022/04/23 11:44:58;;;;;;;8.40;7.60;;;;;13.90;92739.00;;;;7394726;19;20148;-75
2022/04/23 11:47:33;;;;;;;8.52;7.43;;;;;14.10;92730.00;;;;7395370;19;20145;-77
2022/04/23 11:50:09;;;;;;;8.57;7.40;;;;;13.80;92734.00;;;;7396173;19;20148;-78
2022/04/23 11:52:45;;;;;;;8.55;7.50;;;;;13.90;92733.00;;;;7391342;19;20168;-76
2022/04/23 11:55:24;;;;;;;7.85;6.28;;;;;14.20;92739.00;;;;7395872;19;20133;-78
2022/04/23 11:58:05;;;;;;;7.95;6.57;;;;;14.60;92734.00;;;;7391667;19;20164;-79
2022/04/23 12:00:35;;;;;;;7.47;6.78;;;;;14.60;92737.00;;;;7395511;19;20698;-77
2022/04/23 12:03:09;;;;;;;7.40;6.68;;;;;14.60;92731.00;;;;7395226;19;20133;-77
2022/04/23 12:05:37;;;;;;;7.43;6.25;;;;;14.60;92734.00;;;;7395550;19;20181;-77
2022/04/23 12:08:42;;;;;;;6.50;5.90;;;;;14.30;92727.00;;;;7391412;19;20537;-78
2022/04/23 12:11:34;;;;;;;9.98;6.78;;;;;14.20;92723.00;;;;7393522;19;20153;-81
2022/04/23 12:14:11;;;;;;;6.60;6.00;;;;;14.50;92719.00;;;;7389809;19;20149;-79
2022/04/23 12:16:49;;;;;;;10.15;6.85;;;;;14.50;92727.00;;;;7391986;19;20163;-77
2022/04/23 12:19:17;;;;;;;13.57;10.48;;;;;14.30;92719.00;;;;7395283;19;20477;-78
2022/04/23 12:22:21;;;;;;;12.02;9.98;;;;;14.30;92714.00;;;;7397029;19;20153;-78
2022/04/23 12:25:18;;;;;;;19.13;13.80;;;;;14.30;92719.00;;;;7402941;19;20136;-78
2022/04/23 12:43:27;;;;;;;7.93;6.75;;;;;14.30;92720.00;;;;7396904;19;20196;-77
2022/04/23 12:46:11;;;;;;;7.80;6.72;;;;;13.70;92715.00;;;;7399479;19;20184;-77
2022/04/23 12:48:58;;;;;;;8.35;6.32;;;;;13.70;92715.00;;;;7399313;19;20613;-78
2022/04/23 12:51:27;;;;;;;7.60;6.90;;;;;13.80;92711.00;;;;7398724;19;20133;-79
2022/04/23 12:54:13;;;;;;;8.50;6.35;;;;;13.80;92709.00;;;;7395149;19;20182;-77
2022/04/23 12:56:44;;;;;;;10.73;7.05;;;;;13.70;92707.00;;;;7395837;19;20152;-77
2022/04/23 12:59:22;;;;;;;7.93;7.10;;;;;13.60;92706.00;;;;7394087;19;20160;-78
2022/04/23 13:01:54;;;;;;;8.70;6.72;;;;;13.60;92709.00;;;;7391989;19;20176;-77
2022/04/23 13:04:29;;;;;;;8.43;6.80;;;;;13.20;92710.00;;;;7391729;19;20156;-78
2022/04/23 13:09:51;;;;;;;8.10;7.30;;;;;13.50;92703.00;;;;7392908;19;20177;-77
2022/04/23 13:12:26;;;;;;;10.68;7.55;;;;;13.50;92703.00;;;;7394057;19;20159;-76
2022/04/23 13:15:01;;;;;;;8.27;7.00;;;;;13.50;92704.00;;;;7396205;19;20153;-77
2022/04/23 13:17:30;;;;;;;9.10;8.10;;;;;13.30;92713.00;;;;7392221;19;20145;-79
2022/04/23 13:20:02;;;;;;;11.07;8.02;;;;;13.40;92713.00;;;;7390980;19;20153;-79
2022/04/23 13:22:45;;;;;;;10.60;7.90;;;;;13.40;92709.00;;;;7390190;19;20521;-79
2022/04/23 13:25:23;;;;;;;13.65;8.50;;;;;13.30;92710.00;;;;7391638;19;20534;-79
2022/04/23 13:27:57;;;;;;;10.60;8.48;;;;;13.30;92700.00;;;;7389666;19;20133;-78
2022/04/23 13:30:25;;;;;;;9.20;8.30;;;;;13.80;92699.00;;;;7390576;19;20606;-77